Time,TemperatureF,DewpointF,PressureIn,WindDirection,WindDirectionDegrees,WindSpeedMPH,WindSpeedGustMPH,Humidity,HourlyPrecipIn,Conditions,Clouds,dailyrainin,SoftwareType,DateUTC
2013-09-10 00:12:00,68.0,47.0,-100.00,NW,320,6.0,6.0,46,-99.99,,,-99.99,,2013-09-10 07:12:00,
2013-09-10 01:12:00,66.0,47.0,-100.00,NW,320,7.0,10.0,50,-99.99,,,-99.99,,2013-09-10 08:12:00,
2013-09-10 02:11:00,64.0,47.0,-100.00,NW,315,6.0,7.0,53,-99.99,,,-99.99,,2013-09-10 09:11:00,
2013-09-10 03:13:00,65.0,47.0,-100.00,NW,310,3.0,6.0,52,-99.99,,,-99.99,,2013-09-10 10:13:00,
2013-09-10 04:12:00,63.0,47.0,-100.00,NW,315,3.0,5.0,55,-99.99,,,-99.99,,2013-09-10 11:12:00,
2013-09-10 05:12:00,62.0,46.0,-100.00,WNW,300,6.0,6.0,55,-99.99,,,-99.99,,2013-09-10 12:12:00,
2013-09-10 06:11:00,58.0,45.0,-100.00,NNW,345,0.0,1.0,61,-99.99,,,-99.99,,2013-09-10 13:11:00,
2013-09-10 07:11:00,57.0,45.0,-100.00,WNW,300,2.0,3.0,64,-99.99,,,-99.99,,2013-09-10 14:11:00,
2013-09-10 08:11:00,60.0,46.0,-100.00,NW,320,3.0,5.0,59,-99.99,,,-99.99,,2013-09-10 15:11:00,
2013-09-10 10:12:00,78.0,53.0,-100.00,North,350,10.0,13.0,41,-99.99,,,-99.99,,2013-09-10 17:12:00,
2013-09-10 11:12:00,82.0,52.0,-100.00,North,360,7.0,12.0,35,-99.99,,,-99.99,,2013-09-10 18:12:00,
2013-09-10 12:11:00,83.0,51.0,-100.00,North,5,7.0,12.0,33,-99.99,,,-99.99,,2013-09-10 19:11:00,
2013-09-10 13:11:00,87.0,53.0,-100.00,North,5,10.0,15.0,31,-99.99,,,-99.99,,2013-09-10 20:11:00,
2013-09-10 14:11:00,90.0,52.0,-100.00,North,360,10.0,14.0,27,-99.99,,,-99.99,,2013-09-10 21:11:00,
2013-09-10 15:13:00,91.0,50.0,-100.00,North,360,5.0,12.0,24,-99.99,,,-99.99,,2013-09-10 22:13:00,
2013-09-10 16:13:00,94.0,49.0,-100.00,NNE,15,5.0,9.0,21,-99.99,,,-99.99,,2013-09-10 23:13:00,
2013-09-10 17:11:00,93.0,51.0,-100.00,NE,45,12.0,15.0,24,-99.99,,,-99.99,,2013-09-11 00:11:00,
2013-09-10 18:11:00,92.0,51.0,-100.00,North,5,7.0,12.0,24,-99.99,,,-99.99,,2013-09-11 01:11:00,
2013-09-10 19:11:00,91.0,51.0,-100.00,North,360,12.0,14.0,25,-99.99,,,-99.99,,2013-09-11 02:11:00,
2013-09-10 20:12:00,86.0,52.0,-100.00,NNW,330,7.0,9.0,31,-99.99,,,-99.99,,2013-09-11 03:12:00,
2013-09-10 21:14:00,80.0,51.0,-100.00,West,280,9.0,10.0,36,-99.99,,,-99.99,,2013-09-11 04:14:00,
2013-09-10 22:12:00,78.0,50.0,-100.00,WNW,295,7.0,10.0,37,-99.99,,,-99.99,,2013-09-11 05:12:00,
2013-09-10 23:12:00,76.0,49.0,-100.00,WNW,290,9.0,10.0,38,-99.99,,,-99.99,,2013-09-11 06:12:00,